Saturday, August 18, 2018, 1:52 PM EDT
Back to Local

KDMH, Baltimore Downtown

Location: Baltimore, MD, United States Lat: 39.283
Local Time: 1:52 PM EDT (17:52 GMT) Lon: -76.617
Time Zone: US/Eastern Elev: 19 ft

Show me the last for .
Show Coded

Time T Td Feel RH Dir Speed Gust Alt SLP Vis Weather Sky Remarks
2018-08-18 12:54 90 71 97 54 - - - 29.86 29.86 0 None
2018-08-18 11:54 88 71 95 57 - - - 29.88 29.88 0 None
2018-08-18 10:54 86 73 93 65 - - - 29.89 29.89 0 None
2018-08-18 09:54 83 73 89 72 - - - 29.90 29.90 0 None
2018-08-18 08:54 78 72 82 81 - - - 29.92 29.92 0 None
2018-08-18 07:54 76 73 80 90 - - - 29.92 29.92 0 6-hr Precip Total (8am): 0.06"
24-hr Precip Total (8am): 0.06"
6-hr Min Temp (8am): 75.0°F
6-hr Max Temp (8am): 80.1°F
2018-08-18 05:54 75 73 79 93 - - - 29.92 29.91 0 None
2018-08-18 04:54 76 72 80 87 - - - 29.91 29.91 0 6-hr Precip Total (5am): 0.06"
2018-08-18 03:54 76 72 80 87 - - - 29.92 29.92 0 1-hr Precip Total: 0.06"
2018-08-18 02:54 79 70 83 74 - - - 29.93 29.93 0 None
2018-08-18 01:54 80 70 84 71 - - - 29.94 29.93 0 6-hr Min Temp (2am): 79.0°F
6-hr Max Temp (2am): 87.1°F
2018-08-18 00:54 80 69 84 69 - - - 29.96 29.96 0 24-hr Min Temp (1am): 78.1°F
24-hr Max Temp (1am): 96.1°F
2018-08-17 23:54 81 69 85 67 - - - 29.95 29.95 0 None
2018-08-17 22:54 82 69 86 64 - - - 29.95 29.95 0 None
2018-08-17 21:54 82 68 85 62 - - - 29.96 29.96 0 None
2018-08-17 20:54 84 69 88 60 - - - 29.96 29.96 0 None
2018-08-17 19:54 87 73 95 63 - - - 29.95 29.95 0 6-hr Min Temp (8pm): 87.1°F
6-hr Max Temp (8pm): 96.1°F
2018-08-17 18:54 90 73 99 57 - - - 29.95 29.94 0 None
2018-08-17 17:54 91 73 100 55 - - - 29.95 29.94 0 None
2018-08-17 16:54 93 72 102 50 - - - 29.95 29.95 0 None
2018-08-17 15:54 96 71 105 44 - - - 29.96 29.96 0 None
2018-08-17 14:54 95 74 107 50 - - - 29.98 29.97 0 None
2018-08-17 13:54 92 75 104 58 - - - 30.01 30.00 0 6-hr Min Temp (2pm): 80.1°F
6-hr Max Temp (2pm): 93.0°F

Support USWX by starting your Amazon purchase here.